Time;durP1;ratioP1;P1;durP2;ratioP2;P2;SDS_P1;SDS_P2;PMS_P1;PMS_P2;Temp;Humidity;BMP_temperature;BMP_pressure;BME280_temperature;BME280_humidity;BME280_pressure;Samples;Min_cycle;Max_cycle;Signal;HPM_P1;HPM_P2
2022/04/03 00:01:29;;;;;;;2.03;1.80;;;;;;;2.45;100.00;97136.25;5028367;28;20100;-50
2022/04/03 00:03:55;;;;;;;2.92;2.03;;;;;;;2.44;100.00;97134.59;5026641;28;20699;-50
2022/04/03 00:06:22;;;;;;;2.75;2.00;;;;;;;2.43;100.00;97135.47;5026682;28;20041;-48
2022/04/03 00:08:48;;;;;;;2.45;2.10;;;;;;;2.42;100.00;97136.38;5047111;28;20075;-49
2022/04/03 00:11:13;;;;;;;2.50;2.05;;;;;;;2.42;100.00;97136.38;5029113;28;20616;-55
2022/04/03 00:13:40;;;;;;;3.42;2.10;;;;;;;2.26;100.00;97107.16;5041062;28;20037;-52
2022/04/03 00:16:06;;;;;;;3.53;1.98;;;;;;;2.39;100.00;97129.66;5012048;28;20044;-47
2022/04/03 00:18:33;;;;;;;3.00;2.00;;;;;;;2.39;100.00;97133.97;5024858;28;20428;-47
2022/04/03 00:21:00;;;;;;;3.67;2.20;;;;;;;2.37;100.00;97134.00;5030326;28;20655;-48
2022/04/03 00:23:26;;;;;;;3.28;2.55;;;;;;;2.34;100.00;97131.59;5011481;28;20045;-49
2022/04/03 00:25:53;;;;;;;2.40;2.00;;;;;;;2.25;100.00;97121.72;5010201;28;20033;-49
2022/04/03 00:28:20;;;;;;;2.70;2.13;;;;;;;2.31;100.00;97129.13;5017885;28;20041;-50
2022/04/03 00:30:46;;;;;;;2.88;2.35;;;;;;;2.33;100.00;97131.66;4997588;28;20088;-47
2022/04/03 00:33:12;;;;;;;2.58;2.10;;;;;;;2.33;100.00;97136.78;4991395;28;20041;-48
2022/04/03 00:35:39;;;;;;;2.65;2.30;;;;;;;2.32;100.00;97129.97;5028514;28;20056;-50
2022/04/03 00:38:06;;;;;;;3.60;2.50;;;;;;;2.35;100.00;97137.56;5033089;28;20037;-48
2022/04/03 00:40:32;;;;;;;2.70;2.35;;;;;;;2.26;100.00;97120.81;5038445;28;20508;-48
2022/04/03 00:42:58;;;;;;;4.05;2.45;;;;;;;2.35;100.00;97135.00;5037889;28;20135;-50
2022/04/03 00:45:24;;;;;;;3.15;2.50;;;;;;;2.28;100.00;97115.63;5042325;28;20499;-50
2022/04/03 00:47:54;;;;;;;4.10;2.35;;;;;;;2.36;100.00;97132.34;5032235;28;20090;-50
2022/04/03 00:50:20;;;;;;;2.58;2.38;;;;;;;2.36;100.00;97126.38;5029596;28;20528;-49
2022/04/03 00:52:47;;;;;;;2.53;2.33;;;;;;;2.19;100.00;97103.22;5046061;28;20128;-54
2022/04/03 00:55:13;;;;;;;3.70;2.50;;;;;;;2.30;100.00;97122.38;5029529;28;20034;-50
2022/04/03 00:57:40;;;;;;;3.45;2.20;;;;;;;2.30;100.00;97124.09;5030215;28;20080;-53
2022/04/03 01:00:07;;;;;;;2.65;2.45;;;;;;;2.31;100.00;97123.19;4996238;28;20033;-49
2022/04/03 01:02:33;;;;;;;5.20;2.83;;;;;;;2.29;100.00;97114.75;5032162;28;20045;-49
2022/04/03 01:04:59;;;;;;;3.38;2.85;;;;;;;2.16;100.00;97103.31;5048510;28;20087;-47
2022/04/03 01:07:24;;;;;;;3.03;2.50;;;;;;;2.06;100.00;97085.78;5038176;28;20471;-48
2022/04/03 01:09:51;;;;;;;3.47;2.50;;;;;;;2.24;100.00;97116.66;5029679;28;20072;-53
2022/04/03 01:12:16;;;;;;;3.30;2.67;;;;;;;2.22;100.00;97113.31;5030679;28;20091;-50
2022/04/03 01:14:43;;;;;;;3.95;3.17;;;;;;;2.20;100.00;97113.38;5019196;28;20040;-48
2022/04/03 01:17:12;;;;;;;3.33;2.60;;;;;;;2.25;100.00;97119.16;5011019;28;20497;-52
2022/04/03 01:19:41;;;;;;;2.80;2.47;;;;;;;2.25;100.00;97114.03;5017681;28;20067;-50
2022/04/03 01:22:07;;;;;;;2.92;2.50;;;;;;;2.26;100.00;97114.84;5037913;28;20470;-51
2022/04/03 01:24:33;;;;;;;3.40;2.58;;;;;;;2.23;100.00;97115.00;5031513;28;20040;-48
2022/04/03 01:27:00;;;;;;;3.13;2.38;;;;;;;2.19;100.00;97119.44;5048094;28;20071;-50
2022/04/03 01:29:26;;;;;;;2.72;2.42;;;;;;;2.17;100.00;97120.38;5032145;28;20042;-48
2022/04/03 01:31:52;;;;;;;3.08;2.55;;;;;;;2.15;100.00;97114.50;5024549;28;20041;-48
2022/04/03 01:34:19;;;;;;;4.25;2.95;;;;;;;2.15;100.00;97106.81;5022211;28;20047;-48
2022/04/03 01:36:46;;;;;;;3.03;2.30;;;;;;;2.13;100.00;97122.25;5044994;28;20509;-49
2022/04/03 01:39:12;;;;;;;3.47;2.40;;;;;;;2.14;100.00;97118.78;5048821;28;20102;-49
2022/04/03 01:41:39;;;;;;;3.28;2.50;;;;;;;2.15;100.00;97119.63;5034141;28;20580;-46
2022/04/03 01:44:07;;;;;;;3.60;2.60;;;;;;;2.13;100.00;97115.38;5030413;28;20044;-47
2022/04/03 01:46:33;;;;;;;3.22;2.60;;;;;;;2.15;100.00;97122.19;5029014;28;20045;-47
2022/04/03 01:48:59;;;;;;;4.07;2.80;;;;;;;2.14;100.00;97113.66;5028870;28;20497;-47
2022/04/03 01:51:25;;;;;;;3.40;2.72;;;;;;;2.17;100.00;97112.69;5029501;28;20056;-47
2022/04/03 01:53:51;;;;;;;3.92;2.60;;;;;;;2.14;100.00;97118.78;5060665;28;20433;-49
2022/04/03 01:56:17;;;;;;;2.78;2.40;;;;;;;2.09;100.00;97101.03;5031289;28;20044;-46
2022/04/03 01:58:42;;;;;;;3.70;2.30;;;;;;;2.13;100.00;97104.31;5023325;28;20106;-49
2022/04/03 02:01:08;;;;;;;2.88;2.22;;;;;;;2.13;100.00;97114.56;5037334;28;20044;-47
2022/04/03 02:03:34;;;;;;;3.63;2.50;;;;;;;2.10;100.00;97107.81;5045145;28;20068;-47
2022/04/03 02:06:00;;;;;;;2.65;2.25;;;;;;;2.03;100.00;97091.06;5048628;28;20041;-50
2022/04/03 02:08:27;;;;;;;3.42;2.40;;;;;;;2.05;100.00;97099.50;5032224;28;20535;-53
2022/04/03 02:10:54;;;;;;;2.50;1.90;;;;;;;2.03;100.00;97097.91;5047560;28;20036;-50
2022/04/03 02:13:19;;;;;;;3.40;2.45;;;;;;;2.05;100.00;97094.38;5038447;28;20103;-53
2022/04/03 02:15:46;;;;;;;2.78;2.03;;;;;;;2.02;100.00;97098.78;5028826;28;20045;-47
2022/04/03 02:18:12;;;;;;;3.83;2.72;;;;;;;2.01;100.00;97097.97;5027170;28;20037;-49
2022/04/03 02:20:39;;;;;;;2.53;1.85;;;;;;;2.01;100.00;97104.81;5040612;28;20041;-47
2022/04/03 02:23:05;;;;;;;3.58;2.40;;;;;;;1.96;100.00;97099.03;5027141;28;20044;-51
2022/04/03 02:25:31;;;;;;;2.45;2.10;;;;;;;1.94;100.00;97095.69;5026903;28;20061;-47
2022/04/03 02:27:59;;;;;;;6.70;2.40;;;;;;;1.81;100.00;97068.94;5034738;28;20083;-51
2022/04/03 02:30:25;;;;;;;3.55;2.50;;;;;;;1.85;100.00;97084.13;5046053;28;20067;-47
2022/04/03 02:32:51;;;;;;;2.63;2.10;;;;;;;1.85;100.00;97086.69;5009653;28;20075;-52
2022/04/03 02:35:17;;;;;;;4.13;2.40;;;;;;;1.70;100.00;97067.66;5029425;28;20497;-50
2022/04/03 02:37:43;;;;;;;3.10;2.15;;;;;;;1.88;100.00;97088.28;5024483;28;20042;-51
2022/04/03 02:40:13;;;;;;;4.45;2.30;;;;;;;1.88;100.00;97090.84;5019004;28;20124;-47
2022/04/03 02:42:39;;;;;;;2.58;1.88;;;;;;;1.82;100.00;97086.81;5009311;28;20132;-47
2022/04/03 02:45:06;;;;;;;3.20;2.10;;;;;;;1.68;100.00;97060.91;5024415;28;20512;-49
2022/04/03 02:47:33;;;;;;;3.13;2.30;;;;;;;1.73;100.00;97071.81;5009369;28;20579;-53
2022/04/03 02:49:59;;;;;;;3.33;2.45;;;;;;;1.79;100.00;97089.50;5010773;28;20532;-47
2022/04/03 02:52:25;;;;;;;3.42;2.13;;;;;;;1.81;100.00;97102.25;5009286;28;20825;-49
2022/04/03 02:54:50;;;;;;;3.53;2.30;;;;;;;1.80;100.00;97092.88;5025467;28;20045;-52
2022/04/03 02:57:17;;;;;;;3.38;2.13;;;;;;;1.65;100.00;97071.31;5026906;28;20063;-51
2022/04/03 02:59:44;;;;;;;3.80;2.40;;;;;;;1.78;100.00;97089.56;5013033;28;20763;-48
2022/04/03 03:02:11;;;;;;;2.13;1.85;;;;;;;1.79;100.00;97092.03;5035945;28;20038;-50
2022/04/03 03:04:37;;;;;;;2.95;2.20;;;;;;;1.63;100.00;97066.22;5009440;28;20049;-47
2022/04/03 03:07:04;;;;;;;4.95;2.80;;;;;;;1.74;100.00;97093.97;5022227;28;20091;-46
2022/04/03 03:09:30;;;;;;;3.30;2.53;;;;;;;1.75;100.00;97087.13;5016762;28;20048;-50
2022/04/03 03:11:56;;;;;;;3.75;2.13;;;;;;;1.74;100.00;97091.41;5009345;28;20033;-47
2022/04/03 03:14:21;;;;;;;2.75;2.15;;;;;;;1.82;100.00;97098.78;5022627;28;20042;-50
2022/04/03 03:16:48;;;;;;;3.90;2.15;;;;;;;1.85;100.00;97103.78;5008993;28;20045;-48
2022/04/03 03:19:15;;;;;;;3.00;2.22;;;;;;;1.83;100.00;97093.63;5026553;28;20051;-49
2022/04/03 03:21:43;;;;;;;4.25;2.40;;;;;;;1.82;100.00;97099.63;5023626;28;20468;-52
2022/04/03 03:24:09;;;;;;;3.20;2.20;;;;;;;1.73;100.00;97078.69;5009824;28;20045;-48
2022/04/03 03:26:36;;;;;;;1.98;1.58;;;;;;;1.88;100.00;97094.25;5024125;28;20071;-49
2022/04/03 03:29:02;;;;;;;2.63;2.03;;;;;;;1.77;100.00;97075.94;5039882;28;20132;-50
2022/04/03 03:31:28;;;;;;;2.15;1.95;;;;;;;1.90;100.00;97096.72;5025986;28;20140;-49
2022/04/03 03:33:53;;;;;;;2.88;2.33;;;;;;;1.91;100.00;97091.56;5042240;28;20136;-48
2022/04/03 03:36:19;;;;;;;2.42;2.05;;;;;;;1.94;100.00;97090.56;5045806;28;20112;-49
2022/04/03 03:38:46;;;;;;;3.25;1.90;;;;;;;1.96;100.00;97099.88;5024873;28;20596;-54
2022/04/03 03:41:16;;;;;;;2.38;1.85;;;;;;;2.00;100.00;97100.56;5021074;28;20066;-50
2022/04/03 03:43:43;;;;;;;3.60;2.40;;;;;;;2.01;100.00;97105.66;5029060;28;20127;-50
2022/04/03 03:46:09;;;;;;;3.05;2.13;;;;;;;2.06;100.00;97103.72;5027908;28;20038;-51
2022/04/03 03:48:36;;;;;;;2.72;1.85;;;;;;;2.07;100.00;97102.00;5018147;28;20053;-50
2022/04/03 03:51:02;;;;;;;2.20;1.90;;;;;;;2.11;100.00;97108.66;5040606;28;20568;-49
2022/04/03 03:53:28;;;;;;;3.00;2.22;;;;;;;2.13;100.00;97102.56;5029317;28;20041;-49
2022/04/03 03:55:55;;;;;;;2.85;1.92;;;;;;;2.01;100.00;97090.28;5041537;28;20053;-53
2022/04/03 03:58:20;;;;;;;3.13;2.00;;;;;;;2.12;100.00;97100.06;5027213;28;20046;-50
2022/04/03 04:00:46;;;;;;;3.35;2.00;;;;;;;2.13;100.00;97106.88;5028753;28;20053;-50
2022/04/03 04:03:12;;;;;;;3.15;2.05;;;;;;;2.15;100.00;97114.50;5034484;28;20195;-46
2022/04/03 04:05:40;;;;;;;3.08;2.05;;;;;;;2.14;100.00;97118.78;5029003;28;20096;-50
2022/04/03 04:08:07;;;;;;;5.95;2.33;;;;;;;2.12;100.00;97113.72;5028606;28;20052;-49
2022/04/03 04:10:33;;;;;;;2.70;2.00;;;;;;;2.15;100.00;97119.63;5031167;28;20063;-48
2022/04/03 04:12:59;;;;;;;4.25;2.55;;;;;;;2.13;100.00;97123.06;5032885;28;20065;-49
2022/04/03 04:15:27;;;;;;;3.13;2.20;;;;;;;2.11;100.00;97117.16;5031780;28;20462;-52
2022/04/03 04:17:57;;;;;;;3.67;2.15;;;;;;;2.15;100.00;97124.75;5038695;28;20107;-47
2022/04/03 04:20:23;;;;;;;3.13;2.10;;;;;;;2.15;100.00;97127.31;5046256;28;20286;-50
2022/04/03 04:22:50;;;;;;;3.50;2.10;;;;;;;2.16;100.00;97132.34;5035844;28;20558;-52
2022/04/03 04:25:17;;;;;;;2.60;1.95;;;;;;;2.19;100.00;97134.81;5035799;28;20042;-52
2022/04/03 04:27:44;;;;;;;2.97;1.90;;;;;;;2.20;100.00;97133.88;5031260;28;20069;-54
2022/04/03 04:30:10;;;;;;;2.90;2.17;;;;;;;2.25;100.00;97142.22;5036702;28;20037;-49
2022/04/03 04:32:36;;;;;;;4.63;2.38;;;;;;;2.32;100.00;97147.91;5042437;28;20037;-50
2022/04/03 04:35:03;;;;;;;2.58;1.90;;;;;;;2.38;100.00;97142.53;5031549;28;20046;-50
2022/04/03 04:37:29;;;;;;;2.30;2.00;;;;;;;2.37;100.00;97144.28;5040862;28;20051;-52
2022/04/03 04:39:55;;;;;;;3.00;2.05;;;;;;;2.39;100.00;97145.03;5031202;28;20045;-48
2022/04/03 04:42:22;;;;;;;2.83;2.10;;;;;;;2.44;100.00;97149.97;5031251;28;20092;-50
2022/04/03 04:44:48;;;;;;;4.00;2.05;;;;;;;2.48;100.00;97149.78;5029327;28;20584;-51
2022/04/03 04:47:14;;;;;;;2.72;2.00;;;;;;;2.50;100.00;97153.13;5027912;28;20103;-51
2022/04/03 04:49:39;;;;;;;2.80;2.00;;;;;;;2.55;100.00;97147.78;5052964;28;20463;-53
2022/04/03 04:52:06;;;;;;;2.80;1.90;;;;;;;2.61;100.00;97151.81;5031456;28;20140;-51
2022/04/03 04:54:31;;;;;;;3.03;2.03;;;;;;;2.67;100.00;97152.38;5013661;28;20717;-48
2022/04/03 04:56:58;;;;;;;3.35;2.03;;;;;;;2.66;100.00;97140.47;5030676;28;20128;-49
2022/04/03 04:59:24;;;;;;;2.88;2.00;;;;;;;2.87;100.00;97157.50;5023607;28;20045;-49
2022/04/03 05:01:49;;;;;;;2.42;1.90;;;;;;;2.90;100.00;97157.34;5011108;28;20044;-49
2022/04/03 05:04:15;;;;;;;3.65;2.00;;;;;;;2.96;100.00;97163.94;5026664;28;20049;-49
2022/04/03 05:06:42;;;;;;;3.05;1.90;;;;;;;2.92;100.00;97142.72;5046042;28;20037;-50
2022/04/03 05:09:08;;;;;;;2.72;1.88;;;;;;;3.03;100.00;97165.34;5010573;28;20857;-51
2022/04/03 05:11:34;;;;;;;3.00;1.80;;;;;;;3.02;100.00;97161.09;5042744;28;20076;-53
2022/04/03 05:13:59;;;;;;;2.53;1.80;;;;;;;3.03;100.00;97164.50;5028965;28;20132;-56
2022/04/03 05:16:26;;;;;;;3.22;2.22;;;;;;;3.05;100.00;97173.78;5037112;28;20115;-53
2022/04/03 05:18:52;;;;;;;2.67;2.00;;;;;;;3.14;100.00;97178.50;5033135;28;20041;-52
2022/04/03 05:21:18;;;;;;;3.47;2.25;;;;;;;3.19;100.00;97179.13;5029481;28;20045;-52
2022/04/03 05:23:44;;;;;;;2.85;1.85;;;;;;;3.21;100.00;97181.63;5035382;28;20424;-54
2022/04/03 05:26:10;;;;;;;3.42;2.35;;;;;;;3.24;100.00;97190.03;5036847;28;20536;-52
2022/04/03 05:28:36;;;;;;;3.55;2.08;;;;;;;3.22;100.00;97188.44;5029701;28;20477;-50
2022/04/03 05:31:02;;;;;;;4.45;2.22;;;;;;;3.16;100.00;97186.97;5030272;28;20037;-50
2022/04/03 05:33:28;;;;;;;5.20;2.20;;;;;;;3.18;100.00;97194.63;5022614;28;20522;-51
2022/04/03 05:35:54;;;;;;;3.95;2.30;;;;;;;3.27;100.00;97209.59;5010482;28;20131;-51
2022/04/03 05:38:20;;;;;;;3.67;2.00;;;;;;;3.32;100.00;97205.09;5046220;28;20080;-52
2022/04/03 05:40:46;;;;;;;2.92;1.90;;;;;;;3.23;100.00;97182.41;5011770;28;20088;-55
2022/04/03 05:43:11;;;;;;;2.85;1.73;;;;;;;3.35;100.00;97198.06;5016878;28;20049;-50
2022/04/03 05:45:40;;;;;;;3.90;1.80;;;;;;;3.36;100.00;97199.75;5029445;28;20525;-51
2022/04/03 05:48:06;;;;;;;3.42;2.40;;;;;;;3.21;100.00;97181.63;5022371;28;20508;-54
2022/04/03 05:50:32;;;;;;;3.00;1.98;;;;;;;3.34;100.00;97181.03;5030225;28;20037;-53
2022/04/03 05:52:58;;;;;;;4.22;2.92;;;;;;;3.51;100.00;97190.50;5010048;28;20110;-51
2022/04/03 05:55:23;;;;;;;3.47;2.20;;;;;;;3.52;100.00;97202.44;5042802;28;20046;-51
2022/04/03 05:57:51;;;;;;;3.17;1.98;;;;;;;3.50;100.00;97199.13;5015772;28;20540;-50
2022/04/03 06:00:18;;;;;;;3.65;2.10;;;;;;;3.57;100.00;97207.38;5027387;28;20044;-47
2022/04/03 06:02:48;;;;;;;2.30;1.77;;;;;;;3.70;100.00;97214.44;5035500;28;20041;-52
2022/04/03 06:05:16;;;;;;;4.38;2.17;;;;;;;3.89;100.00;97213.56;5022833;28;20153;-51
2022/04/03 06:07:42;;;;;;;3.58;2.20;;;;;;;3.98;100.00;97220.88;5029127;28;20044;-50
2022/04/03 06:10:08;;;;;;;3.75;2.20;;;;;;;4.06;100.00;97213.63;5029318;28;20077;-50
2022/04/03 06:12:34;;;;;;;4.35;2.53;;;;;;;4.14;100.00;97219.22;5027011;28;20132;-50
2022/04/03 06:15:00;;;;;;;4.78;2.35;;;;;;;4.12;100.00;97214.16;5026993;28;20497;-50
2022/04/03 06:17:26;;;;;;;5.47;2.75;;;;;;;4.18;100.00;97215.59;5027129;28;20037;-52
2022/04/03 06:19:51;;;;;;;4.72;2.05;;;;;;;4.14;100.00;97222.63;5027261;28;20037;-50
2022/04/03 06:22:17;;;;;;;2.58;2.13;;;;;;;4.08;100.00;97198.97;5028618;28;20045;-49
2022/04/03 06:24:43;;;;;;;3.88;2.40;;;;;;;4.13;100.00;97218.41;5028654;28;20060;-49
2022/04/03 06:27:08;;;;;;;2.55;2.10;;;;;;;4.06;100.00;97209.31;5029082;28;20124;-53
2022/04/03 06:29:34;;;;;;;4.25;2.25;;;;;;;3.93;100.00;97217.66;5028075;28;20413;-52
2022/04/03 06:32:00;;;;;;;4.63;2.47;;;;;;;3.77;100.00;97220.94;5028702;28;20420;-53
2022/04/03 06:34:25;;;;;;;3.28;2.15;;;;;;;3.67;100.00;97230.00;5028645;28;20052;-52
2022/04/03 06:36:53;;;;;;;3.28;2.30;;;;;;;3.60;100.00;97238.06;5028654;28;20120;-51
2022/04/03 06:39:19;;;;;;;5.03;2.50;;;;;;;3.57;100.00;97240.75;5028053;28;20047;-53
2022/04/03 06:41:44;;;;;;;3.83;2.50;;;;;;;3.48;100.00;97244.59;5027308;28;20421;-51
2022/04/03 06:44:10;;;;;;;3.65;2.63;;;;;;;3.40;100.00;97244.91;5027317;28;20521;-51
2022/04/03 06:46:36;;;;;;;5.40;2.88;;;;;;;3.36;100.00;97258.78;5028792;28;20041;-50
2022/04/03 06:49:02;;;;;;;2.67;1.83;;;;;;;3.24;100.00;97238.81;5028225;28;20072;-52
2022/04/03 06:51:27;;;;;;;4.32;2.50;;;;;;;3.24;100.00;97256.78;5026064;28;20041;-50
2022/04/03 06:53:54;;;;;;;3.85;2.17;;;;;;;3.26;100.00;97265.25;5011862;28;20034;-50
2022/04/03 06:56:20;;;;;;;4.93;2.03;;;;;;;3.40;100.00;97270.59;5025621;28;20171;-49
2022/04/03 06:58:45;;;;;;;2.83;2.30;;;;;;;3.42;100.00;97270.53;5021754;28;20128;-49
2022/04/03 07:01:11;;;;;;;4.40;2.60;;;;;;;3.38;100.00;97266.44;5032862;28;20048;-54
2022/04/03 07:03:37;;;;;;;3.50;2.30;;;;;;;3.46;99.32;97287.47;5030542;28;20054;-52
2022/04/03 07:06:03;;;;;;;5.07;2.60;;;;;;;3.46;99.07;97278.91;5028788;28;20045;-50
2022/04/03 07:08:30;;;;;;;5.40;2.22;;;;;;;3.56;99.85;97285.34;5028894;28;20048;-54
2022/04/03 07:10:56;;;;;;;3.70;2.58;;;;;;;3.57;99.12;97285.25;5026625;28;20045;-51
2022/04/03 07:13:22;;;;;;;3.60;2.42;;;;;;;3.54;99.16;97300.81;5028431;28;20060;-49
2022/04/03 07:15:50;;;;;;;3.92;2.22;;;;;;;3.46;98.13;97302.88;5015954;28;20036;-51
2022/04/03 07:18:16;;;;;;;4.53;2.67;;;;;;;3.40;97.63;97305.75;5021238;28;20045;-54
2022/04/03 07:20:46;;;;;;;4.40;2.33;;;;;;;3.38;97.89;97307.53;5017359;28;20421;-49
2022/04/03 07:23:13;;;;;;;3.67;2.65;;;;;;;3.31;97.74;97311.25;5026443;28;20053;-51
2022/04/03 07:25:38;;;;;;;4.13;2.40;;;;;;;3.30;97.54;97315.56;5020957;28;20053;-52
2022/04/03 07:28:04;;;;;;;4.85;2.47;;;;;;;3.13;96.71;97306.91;5025369;28;20045;-50
2022/04/03 07:30:30;;;;;;;4.20;2.40;;;;;;;3.11;97.06;97319.81;5021112;28;20140;-51
2022/04/03 07:32:56;;;;;;;3.80;2.50;;;;;;;3.23;97.74;97339.00;5029943;28;20042;-52
2022/04/03 07:35:22;;;;;;;6.40;2.38;;;;;;;3.32;96.92;97331.72;5020639;28;20068;-51
2022/04/03 07:37:47;;;;;;;4.40;2.67;;;;;;;3.38;96.46;97341.75;5026790;28;20128;-52
2022/04/03 07:40:13;;;;;;;8.43;2.40;;;;;;;3.38;95.73;97341.75;5023106;28;20087;-51
2022/04/03 07:42:39;;;;;;;3.17;2.10;;;;;;;3.27;94.70;97333.66;5025251;28;20077;-49
2022/04/03 07:45:06;;;;;;;4.65;2.60;;;;;;;3.48;95.20;97347.31;5029581;28;20063;-49
2022/04/03 07:47:31;;;;;;;3.42;2.30;;;;;;;3.61;94.24;97356.13;5030832;28;20524;-49
2022/04/03 07:49:58;;;;;;;3.30;2.20;;;;;;;3.76;93.56;97360.63;5045284;28;20052;-52
2022/04/03 07:52:25;;;;;;;3.65;2.10;;;;;;;3.82;91.79;97357.75;5029947;28;20107;-50
2022/04/03 07:54:50;;;;;;;4.30;2.45;;;;;;;3.88;92.08;97363.53;5028102;28;20540;-49
2022/04/03 07:57:19;;;;;;;5.00;2.20;;;;;;;3.96;91.61;97364.88;5031984;28;20076;-51
2022/04/03 07:59:46;;;;;;;3.70;2.45;;;;;;;4.04;91.45;97367.06;5029837;28;20049;-47
2022/04/03 08:02:12;;;;;;;5.25;2.70;;;;;;;4.19;91.14;97366.38;5028476;28;20877;-53
2022/04/03 08:04:37;;;;;;;5.22;2.22;;;;;;;4.33;90.50;97370.91;5027481;28;20064;-48
2022/04/03 08:07:03;;;;;;;2.70;2.00;;;;;;;4.27;88.66;97369.44;5029700;28;20037;-52
2022/04/03 08:09:29;;;;;;;3.17;2.10;;;;;;;4.37;88.33;97373.25;5030935;28;20538;-47
2022/04/03 08:11:55;;;;;;;2.65;2.15;;;;;;;4.49;87.85;97367.53;5013229;28;20563;-50
2022/04/03 08:14:22;;;;;;;4.50;2.28;;;;;;;4.61;88.02;97382.38;5029887;28;20061;-49
2022/04/03 08:16:47;;;;;;;3.97;2.40;;;;;;;4.69;86.30;97377.72;5034814;28;20063;-50
2022/04/03 08:19:13;;;;;;;3.47;2.35;;;;;;;4.83;85.88;97387.34;5040066;28;20536;-50
2022/04/03 08:21:39;;;;;;;4.05;2.15;;;;;;;5.13;85.62;97388.41;5033457;28;20041;-49
2022/04/03 08:24:05;;;;;;;3.75;2.70;;;;;;;6.14;79.63;97381.53;5038772;28;20149;-48
2022/04/03 08:26:31;;;;;;;2.83;2.20;;;;;;;6.99;75.52;97400.06;5031028;28;20034;-47
2022/04/03 08:28:56;;;;;;;4.15;2.20;;;;;;;7.49;74.25;97391.13;5029577;28;20436;-49
2022/04/03 08:31:23;;;;;;;2.90;2.28;;;;;;;8.15;70.04;97394.03;5011442;28;20421;-51
2022/04/03 08:33:50;;;;;;;3.47;2.25;;;;;;;8.54;68.66;97398.53;5029844;28;20041;-48
2022/04/03 08:36:16;;;;;;;3.33;2.50;;;;;;;9.15;68.90;97392.88;5031226;28;20033;-50
2022/04/03 08:38:42;;;;;;;2.50;2.05;;;;;;;10.15;63.15;97395.63;5022919;28;20697;-50
2022/04/03 08:41:09;;;;;;;3.03;2.40;;;;;;;10.30;71.30;97394.59;5029128;28;20045;-49
2022/04/03 08:43:35;;;;;;;4.88;2.85;;;;;;;9.74;74.66;97404.47;5028154;28;20042;-49
2022/04/03 08:46:01;;;;;;;4.82;2.42;;;;;;;9.60;76.19;97409.75;5011075;28;20128;-50
2022/04/03 08:48:31;;;;;;;2.78;2.25;;;;;;;9.58;77.06;97403.81;5028501;28;20041;-52
2022/04/03 08:50:58;;;;;;;4.93;2.70;;;;;;;10.02;80.56;97402.59;5028639;28;20119;-51
2022/04/03 08:53:25;;;;;;;5.00;2.67;;;;;;;10.18;81.08;97405.81;5028032;28;20077;-50
2022/04/03 08:55:50;;;;;;;5.53;2.50;;;;;;;10.39;80.98;97419.91;5028736;28;20045;-53
2022/04/03 08:58:17;;;;;;;3.28;2.13;;;;;;;10.31;82.91;97424.81;5025484;28;20045;-54
2022/04/03 09:00:44;;;;;;;4.40;2.58;;;;;;;10.31;82.85;97427.41;5013375;28;20955;-50
2022/04/03 09:03:12;;;;;;;5.40;2.40;;;;;;;10.53;83.45;97414.59;5028367;28;20073;-47
2022/04/03 09:05:38;;;;;;;4.00;2.33;;;;;;;10.64;81.30;97421.63;5027864;28;20043;-52
2022/04/03 09:08:05;;;;;;;4.40;2.65;;;;;;;10.50;80.65;97416.56;5036698;28;20064;-50
2022/04/03 09:10:31;;;;;;;4.32;2.50;;;;;;;10.01;81.82;97424.28;5030746;28;20029;-54
2022/04/03 09:12:58;;;;;;;7.00;2.72;;;;;;;9.42;80.92;97418.72;5030353;28;20048;-54
2022/04/03 09:15:24;;;;;;;5.15;2.70;;;;;;;9.17;83.02;97422.09;5034956;28;20152;-54
2022/04/03 09:17:52;;;;;;;4.15;2.80;;;;;;;8.99;82.96;97396.56;5047946;28;20055;-50
2022/04/03 09:20:22;;;;;;;6.18;3.22;;;;;;;9.64;82.63;97431.13;5011909;28;20042;-53
2022/04/03 09:22:59;;;;;;;5.28;2.50;;;;;;;10.22;78.01;97432.41;5028692;28;20516;-51
2022/04/03 09:25:30;;;;;;;4.28;2.53;;;;;;;9.98;76.65;97435.72;5062041;28;20499;-50
2022/04/03 09:27:58;;;;;;;4.93;2.47;;;;;;;9.64;78.32;97438.91;5030342;28;20041;-51
2022/04/03 09:30:30;;;;;;;4.25;2.80;;;;;;;10.14;78.05;97441.53;5017747;28;20036;-49
2022/04/03 09:32:57;;;;;;;3.80;2.30;;;;;;;10.60;77.18;97448.75;5042252;28;20467;-49
2022/04/03 09:35:26;;;;;;;3.92;2.20;;;;;;;10.75;75.84;97450.28;5028658;28;20041;-47
2022/04/03 09:38:12;;;;;;;4.80;2.67;;;;;;;10.99;73.10;97450.31;5032744;28;20075;-48
2022/04/03 09:40:45;;;;;;;2.50;1.98;;;;;;;11.14;73.61;97453.59;5031442;28;20040;-51
2022/04/03 09:43:40;;;;;;;3.15;2.30;;;;;;;11.46;71.52;97460.69;5044510;28;20124;-50
2022/04/03 09:46:10;;;;;;;3.78;2.50;;;;;;;12.03;70.71;97469.53;5015472;28;20052;-49
2022/04/03 09:48:39;;;;;;;4.40;2.30;;;;;;;12.36;69.54;97442.66;5016084;28;20172;-51
2022/04/03 09:51:09;;;;;;;3.57;2.43;;;;;;;12.74;68.27;97469.19;5024949;28;20043;-53
2022/04/03 09:53:52;;;;;;;4.65;2.55;;;;;;;12.63;66.46;97477.84;5029265;28;20048;-54
2022/04/03 09:56:20;;;;;;;4.95;2.50;;;;;;;12.26;66.94;97479.84;5025251;28;20045;-47
2022/04/03 09:58:49;;;;;;;6.53;2.63;;;;;;;12.28;66.54;97483.19;5037742;28;20536;-48
2022/04/03 10:01:23;;;;;;;3.17;1.98;;;;;;;12.36;66.62;97493.00;5030028;28;20041;-49
2022/04/03 10:03:49;;;;;;;2.80;2.22;;;;;;;12.64;66.79;97494.31;5019051;28;20100;-54
2022/04/03 10:06:17;;;;;;;3.80;2.20;;;;;;;12.70;66.13;97492.09;5029904;28;20037;-53
2022/04/03 10:08:45;;;;;;;2.92;1.92;;;;;;;12.68;66.16;97488.75;5029366;28;20038;-53
2022/04/03 10:11:11;;;;;;;3.70;2.20;;;;;;;13.02;65.40;97484.34;5031903;28;20029;-50
2022/04/03 10:13:38;;;;;;;5.15;2.53;;;;;;;13.77;64.23;97492.16;5024474;28;20135;-50
2022/04/03 10:16:04;;;;;;;3.90;2.03;;;;;;;14.09;61.29;97484.28;5038608;28;20069;-50
2022/04/03 10:18:30;;;;;;;3.42;2.35;;;;;;;14.21;61.40;97459.75;5009017;28;20038;-51
2022/04/03 10:20:56;;;;;;;5.97;2.03;;;;;;;14.63;60.88;97480.59;5009551;28;20092;-50
2022/04/03 10:23:23;;;;;;;2.35;2.00;;;;;;;15.02;59.42;97487.59;5026908;28;20049;-51
2022/04/03 10:25:51;;;;;;;2.42;1.90;;;;;;;15.51;59.85;97486.75;5027075;28;20038;-48
2022/04/03 10:28:20;;;;;;;4.65;2.42;;;;;;;15.78;58.75;97485.25;5027350;28;20485;-49
2022/04/03 10:30:57;;;;;;;2.83;2.03;;;;;;;15.84;56.89;97492.56;5025428;28;20033;-49
2022/04/03 10:33:24;;;;;;;4.10;2.40;;;;;;;15.57;57.02;97486.22;5033492;28;20132;-53
2022/04/03 10:36:04;;;;;;;3.47;2.05;;;;;;;15.53;55.51;97491.88;5027941;28;20136;-48
2022/04/03 10:38:38;;;;;;;3.83;2.20;;;;;;;15.84;56.92;97495.19;5026967;28;20520;-49
2022/04/03 10:41:05;;;;;;;2.40;1.88;;;;;;;15.95;57.69;97502.91;5027596;28;20052;-50
2022/04/03 10:43:37;;;;;;;3.22;2.50;;;;;;;15.60;54.82;97500.81;5027517;28;20045;-51
2022/04/03 10:46:02;;;;;;;2.50;2.00;;;;;;;15.20;56.92;97501.72;5023519;28;20045;-51
2022/04/03 10:48:30;;;;;;;3.35;1.90;;;;;;;15.13;56.19;97502.38;5025585;28;20037;-50
2022/04/03 10:51:26;;;;;;;3.20;2.00;;;;;;;14.95;54.47;97485.69;5027563;28;20064;-47
2022/04/03 10:54:00;;;;;;;5.80;2.20;;;;;;;14.62;54.95;97498.09;5023964;28;20045;-52
2022/04/03 10:56:28;;;;;;;3.13;1.73;;;;;;;14.12;56.16;97494.50;5010182;28;20044;-50
2022/04/03 10:58:56;;;;;;;2.55;1.83;;;;;;;13.76;56.62;97502.75;5018910;28;20034;-47
2022/04/03 11:01:29;;;;;;;2.25;1.73;;;;;;;13.47;56.26;97505.13;5009873;28;20049;-50
2022/04/03 11:04:07;;;;;;;4.10;1.90;;;;;;;13.23;55.29;97517.53;5012695;28;20088;-51
2022/04/03 11:06:38;;;;;;;4.25;2.38;;;;;;;12.95;57.23;97511.84;5033165;28;20037;-49
2022/04/03 11:09:15;;;;;;;3.75;2.00;;;;;;;13.02;57.17;97513.03;5035253;28;20110;-49
2022/04/03 11:11:52;;;;;;;2.80;1.70;;;;;;;13.48;56.51;97515.44;5028337;28;20069;-54
2022/04/03 11:14:52;;;;;;;3.38;2.30;;;;;;;13.90;55.30;97524.19;4990778;28;20042;-49
2022/04/03 11:17:44;;;;;;;5.03;2.60;;;;;;;14.21;56.23;97530.31;5008012;28;20121;-50
2022/04/03 11:20:10;;;;;;;4.03;2.20;;;;;;;14.52;58.90;97533.81;5022394;28;20095;-51
2022/04/03 11:22:37;;;;;;;4.75;2.08;;;;;;;14.33;56.67;97525.84;5012157;28;20038;-54
2022/04/03 11:25:04;;;;;;;4.53;2.65;;;;;;;14.07;56.14;97542.84;4991207;28;20129;-54
2022/04/03 11:27:30;;;;;;;5.43;2.90;;;;;;;13.84;56.61;97516.84;5007414;28;20033;-50
2022/04/03 11:29:56;;;;;;;5.00;2.58;;;;;;;13.79;56.23;97549.50;5018492;28;20045;-51
2022/04/03 11:32:22;;;;;;;5.07;2.38;;;;;;;13.58;56.33;97554.69;5027103;28;20033;-48
2022/04/03 11:35:01;;;;;;;3.45;2.33;;;;;;;13.60;55.37;97555.41;5023584;28;20029;-53